createdAt,value
2022-10-06T00:04:30.642Z,6.71
2022-10-06T00:09:32.923Z,6.80
2022-10-06T00:14:35.411Z,6.72
2022-10-06T00:19:56.340Z,6.75
2022-10-06T00:24:58.484Z,6.91
2022-10-06T00:30:00.661Z,6.80
2022-10-06T00:35:02.895Z,6.70
2022-10-06T00:40:24.515Z,6.41
2022-10-06T00:45:34.084Z,6.98
2022-10-06T00:50:36.618Z,6.28
2022-10-06T00:55:39.032Z,6.87
2022-10-06T01:00:42.637Z,6.90
2022-10-06T01:05:47.652Z,6.52
2022-10-06T01:10:49.774Z,6.94
2022-10-06T01:16:11.124Z,6.95
2022-10-06T01:21:23.147Z,6.81
2022-10-06T01:26:26.315Z,6.97
2022-10-06T01:31:40.976Z,6.83
2022-10-06T01:36:43.596Z,7.03
2022-10-06T01:42:04.933Z,7.06
2022-10-06T01:47:08.242Z,6.98
2022-10-06T01:52:10.849Z,6.87
2022-10-06T01:57:13.319Z,6.99
2022-10-06T02:02:24.720Z,6.67
2022-10-06T02:07:27.573Z,6.79
2022-10-06T02:12:32.001Z,6.83
2022-10-06T02:17:35.689Z,7.05
2022-10-06T02:22:39.623Z,6.61
2022-10-06T02:27:41.791Z,6.78
2022-10-06T02:32:46.305Z,6.93
2022-10-06T02:37:49.461Z,6.80
2022-10-06T02:43:12.865Z,6.87
2022-10-06T02:48:15.341Z,7.00
2022-10-06T02:53:17.610Z,7.07
2022-10-06T02:58:43.028Z,6.89
2022-10-06T03:03:48.599Z,7.09
2022-10-06T03:09:00.964Z,7.25
2022-10-06T03:14:05.236Z,7.01
2022-10-06T03:19:08.510Z,6.97
2022-10-06T03:24:11.662Z,7.13
2022-10-06T03:29:16.228Z,6.99
2022-10-06T03:34:41.614Z,6.93
2022-10-06T03:39:47.821Z,6.87
2022-10-06T03:44:50.410Z,7.14
2022-10-06T03:49:52.653Z,7.25
2022-10-06T03:54:54.877Z,6.96
2022-10-06T04:00:00.009Z,7.21
2022-10-06T04:05:02.395Z,7.11
2022-10-06T04:10:06.155Z,7.13
2022-10-06T04:15:27.361Z,7.12
2022-10-06T04:20:29.837Z,7.14
2022-10-06T04:25:33.094Z,7.28
2022-10-06T04:30:36.145Z,7.10
2022-10-06T04:35:38.888Z,6.71
2022-10-06T04:40:41.779Z,7.42
2022-10-06T04:45:44.042Z,7.13
2022-10-06T04:50:57.107Z,7.33
2022-10-06T04:56:19.106Z,7.17
2022-10-06T05:01:21.866Z,7.50
2022-10-06T05:06:26.740Z,7.43
2022-10-06T05:11:32.057Z,7.53
2022-10-06T05:16:37.768Z,7.32
2022-10-06T05:21:59.578Z,7.47
2022-10-06T05:27:08.691Z,7.37
2022-10-06T05:32:10.934Z,7.39
2022-10-06T05:37:31.855Z,7.56
2022-10-06T05:42:34.327Z,7.60
2022-10-06T05:47:36.936Z,7.51
2022-10-06T05:52:39.241Z,7.66
2022-10-06T05:57:42.160Z,7.55
2022-10-06T06:02:44.429Z,6.97
2022-10-06T06:07:48.296Z,7.44
2022-10-06T06:12:50.670Z,7.77
2022-10-06T06:18:13.107Z,7.73
2022-10-06T06:23:36.659Z,8.02
2022-10-06T06:28:42.841Z,8.02
2022-10-06T06:33:45.878Z,7.84
2022-10-06T06:38:52.056Z,7.80
2022-10-06T06:43:57.025Z,7.84
2022-10-06T06:49:12.230Z,8.26
2022-10-06T06:54:19.532Z,8.09
2022-10-06T06:59:45.819Z,8.11
2022-10-06T07:05:11.774Z,8.10
2022-10-06T07:10:14.658Z,8.00
2022-10-06T07:15:53.833Z,8.24
2022-10-06T07:21:14.491Z,7.96
2022-10-06T07:26:17.008Z,8.22
2022-10-06T07:31:20.033Z,8.18
2022-10-06T07:36:46.107Z,8.32
2022-10-06T07:42:08.060Z,8.26
2022-10-06T07:47:11.201Z,8.33
2022-10-06T07:52:31.335Z,8.28
2022-10-06T07:57:35.535Z,8.46
2022-10-06T08:02:56.374Z,8.40
2022-10-06T08:07:58.847Z,8.69
2022-10-06T08:13:01.946Z,8.71
2022-10-06T08:18:12.185Z,8.44
2022-10-06T08:23:32.643Z,8.50
2022-10-06T08:28:36.766Z,8.61
2022-10-06T08:33:40.152Z,8.81
2022-10-06T08:39:01.552Z,8.57
2022-10-06T08:44:16.066Z,8.98
2022-10-06T08:49:46.067Z,8.96
2022-10-06T08:54:59.756Z,8.81
2022-10-06T09:00:19.689Z,8.68
2022-10-06T09:05:28.708Z,8.84
2022-10-06T09:10:36.926Z,9.02
2022-10-06T09:15:45.054Z,9.05
2022-10-06T09:21:18.420Z,8.85
2022-10-06T09:26:24.012Z,9.07
2022-10-06T09:31:50.779Z,8.98
2022-10-06T09:37:13.002Z,9.15
2022-10-06T09:42:35.777Z,9.01
2022-10-06T09:48:13.021Z,9.07
2022-10-06T09:53:16.476Z,8.86
2022-10-06T09:58:30.658Z,9.44
2022-10-06T10:04:01.870Z,9.37
2022-10-06T10:09:21.812Z,9.57
2022-10-06T10:14:24.837Z,9.00
2022-10-06T10:19:33.801Z,9.40
2022-10-06T10:24:39.021Z,9.73
2022-10-06T10:29:45.821Z,9.62
2022-10-06T10:35:16.774Z,9.85
2022-10-06T10:40:35.634Z,9.84
2022-10-06T10:45:58.143Z,9.52
2022-10-06T10:51:09.480Z,9.88
2022-10-06T10:56:12.620Z,9.77
2022-10-06T11:01:35.616Z,9.97
2022-10-06T11:06:55.269Z,9.93
2022-10-06T11:12:11.192Z,9.98
2022-10-06T11:17:32.061Z,10.03
2022-10-06T11:23:08.452Z,10.11
2022-10-06T11:28:39.562Z,10.16
2022-10-06T11:34:09.515Z,9.81
2022-10-06T11:39:34.376Z,10.05
2022-10-06T11:44:43.098Z,9.71
2022-10-06T11:49:49.664Z,10.06
2022-10-06T11:55:16.257Z,9.81
2022-10-06T12:00:43.196Z,10.10
2022-10-06T12:06:00.725Z,9.86
2022-10-06T12:11:03.218Z,10.40
2022-10-06T12:22:22.688Z,10.40
2022-10-06T12:28:02.714Z,10.51
2022-10-06T12:33:05.964Z,10.29
2022-10-06T12:38:35.831Z,10.57
2022-10-06T12:43:54.904Z,10.45
2022-10-06T12:49:24.158Z,10.58
2022-10-06T12:54:40.187Z,10.34
2022-10-06T12:59:42.546Z,10.20
2022-10-06T13:04:54.343Z,10.54
2022-10-06T13:10:21.842Z,10.29
2022-10-06T13:15:43.467Z,10.15
2022-10-06T13:20:58.520Z,10.07
2022-10-06T13:26:27.897Z,10.44
2022-10-06T13:31:52.942Z,10.33
2022-10-06T13:36:56.050Z,10.40
2022-10-06T13:42:55.878Z,10.55
2022-10-06T13:48:27.506Z,10.63
2022-10-06T13:53:31.947Z,10.26
2022-10-06T13:58:34.148Z,10.21
2022-10-06T14:08:58.782Z,10.39
2022-10-06T14:14:03.415Z,10.55
2022-10-06T14:19:06.472Z,10.39
2022-10-06T14:24:19.118Z,10.60
2022-10-06T14:29:41.521Z,10.31
2022-10-06T14:34:43.913Z,9.78
2022-10-06T14:39:46.586Z,10.19
2022-10-06T14:44:48.756Z,10.44
2022-10-06T14:50:09.804Z,10.54
2022-10-06T14:55:31.418Z,10.32
2022-10-06T15:00:33.625Z,10.24
2022-10-06T15:05:55.690Z,10.23
2022-10-06T15:10:57.796Z,10.10
2022-10-06T15:16:00.185Z,10.03
2022-10-06T15:21:04.109Z,10.31
2022-10-06T15:26:25.338Z,10.23
2022-10-06T15:31:55.153Z,10.21
2022-10-06T15:36:58.228Z,10.36
2022-10-06T15:42:00.885Z,10.17
2022-10-06T15:47:05.906Z,10.47
2022-10-06T15:52:11.201Z,10.17
2022-10-06T15:57:20.282Z,10.14
2022-10-06T16:02:42.306Z,10.15
2022-10-06T16:07:44.609Z,10.27
2022-10-06T16:12:49.234Z,10.40
2022-10-06T16:17:51.400Z,10.46
2022-10-06T16:22:56.559Z,10.24
2022-10-06T16:27:59.010Z,9.88
2022-10-06T16:33:01.194Z,10.23
2022-10-06T16:38:04.389Z,9.92
2022-10-06T16:43:06.655Z,10.06
2022-10-06T16:48:08.848Z,10.00
2022-10-06T16:53:16.876Z,10.44
2022-10-06T16:58:19.497Z,10.16
2022-10-06T17:03:21.633Z,10.19
2022-10-06T17:08:24.050Z,10.44
2022-10-06T17:13:46.374Z,10.44
2022-10-06T17:18:53.375Z,10.18
2022-10-06T17:24:14.193Z,10.35
2022-10-06T17:29:21.628Z,10.44
2022-10-06T17:34:27.740Z,10.19
2022-10-06T17:39:32.898Z,10.45
2022-10-06T17:44:35.687Z,10.04
2022-10-06T17:49:37.914Z,10.36
2022-10-06T17:54:44.772Z,10.25
2022-10-06T17:59:48.251Z,10.26
2022-10-06T18:04:53.571Z,10.19
2022-10-06T18:10:14.136Z,10.34
2022-10-06T18:15:17.753Z,9.98
2022-10-06T18:20:30.190Z,10.14
2022-10-06T18:25:32.887Z,10.12
2022-10-06T18:30:40.673Z,10.39
2022-10-06T18:41:12.990Z,9.88
2022-10-06T18:52:31.761Z,8.84
2022-10-06T18:57:34.036Z,10.01
2022-10-06T19:02:36.251Z,10.21
2022-10-06T19:07:38.401Z,9.85
2022-10-06T19:12:40.581Z,10.40
2022-10-06T19:17:45.765Z,10.34
2022-10-06T19:22:48.101Z,10.18
2022-10-06T19:27:51.408Z,10.27
2022-10-06T19:33:12.408Z,9.86
2022-10-06T19:38:14.602Z,10.33
2022-10-06T19:43:17.405Z,9.69
2022-10-06T19:48:20.288Z,10.18
2022-10-06T19:53:22.761Z,10.05
2022-10-06T19:58:43.520Z,10.40
2022-10-06T20:03:45.856Z,10.30
2022-10-06T20:09:09.075Z,10.26
2022-10-06T20:14:21.076Z,10.55
2022-10-06T20:19:25.633Z,10.18
2022-10-06T20:24:28.056Z,10.54
2022-10-06T20:29:31.309Z,10.46
2022-10-06T20:34:52.183Z,10.41
2022-10-06T20:40:12.805Z,10.15
2022-10-06T20:45:33.504Z,10.39
2022-10-06T20:50:35.840Z,10.28
2022-10-06T20:55:41.103Z,10.55
2022-10-06T21:01:10.819Z,10.44
2022-10-06T21:06:16.809Z,10.15
2022-10-06T21:11:23.369Z,10.54
2022-10-06T21:16:34.144Z,10.21
2022-10-06T21:21:37.805Z,10.34
2022-10-06T21:26:42.815Z,10.01
2022-10-06T21:31:45.337Z,10.33
2022-10-06T21:37:07.235Z,10.47
2022-10-06T21:42:09.467Z,10.32
2022-10-06T21:47:11.893Z,10.05
2022-10-06T21:52:14.089Z,10.47
2022-10-06T21:57:16.240Z,10.35
2022-10-06T22:02:18.408Z,10.42
2022-10-06T22:07:20.621Z,9.75
2022-10-06T22:12:22.784Z,10.47
2022-10-06T22:17:26.821Z,10.52
2022-10-06T22:22:29.039Z,10.37
2022-10-06T22:27:32.475Z,10.34
2022-10-06T22:32:34.627Z,10.49
2022-10-06T22:37:55.649Z,10.48
2022-10-06T22:42:57.832Z,10.27
2022-10-06T22:48:00.003Z,10.31
2022-10-06T22:53:23.420Z,10.39
2022-10-06T22:58:26.035Z,10.26
2022-10-06T23:03:28.390Z,10.18
2022-10-06T23:08:35.095Z,10.06
2022-10-06T23:13:38.069Z,10.34
2022-10-06T23:18:41.330Z,10.38
2022-10-06T23:23:43.595Z,10.15
2022-10-06T23:28:47.231Z,10.43
2022-10-06T23:33:49.539Z,10.16
2022-10-06T23:38:51.932Z,10.21
2022-10-06T23:43:54.077Z,10.15
2022-10-06T23:48:56.261Z,10.09
2022-10-06T23:53:58.446Z,10.10
2022-10-06T23:59:00.657Z,9.85
